Time;durP1;ratioP1;P1;durP2;ratioP2;P2;SDS_P1;SDS_P2;PMS_P1;PMS_P2;Temp;Humidity;BMP_temperature;BMP_pressure;BME280_temperature;BME280_humidity;BME280_pressure;Samples;Min_cycle;Max_cycle;Signal;HPM_P1;HPM_P2
2023/03/08 00:01:47;;;;;;;9.48;8.98;;;;;;;;;;5009649;28;20030;-64
2023/03/08 00:04:12;;;;;;;9.50;9.00;;;;;;;;;;5007884;28;20032;-64
2023/03/08 00:06:37;;;;;;;8.90;8.50;;;;;;;;;;4990857;28;20064;-63
2023/03/08 00:09:03;;;;;;;8.98;8.57;;;;;;;;;;5008164;28;20414;-63
2023/03/08 00:11:28;;;;;;;9.10;8.70;;;;;;;;;;5010780;28;20014;-63
2023/03/08 00:13:54;;;;;;;9.52;9.02;;;;;;;;;;5011003;28;20028;-64
2023/03/08 00:16:19;;;;;;;9.05;8.65;;;;;;;;;;5013379;28;20022;-64
2023/03/08 00:18:45;;;;;;;9.45;8.95;;;;;;;;;;5013960;28;20052;-63
2023/03/08 00:21:11;;;;;;;8.95;8.55;;;;;;;;;;4997529;28;20497;-63
2023/03/08 00:23:37;;;;;;;9.52;9.02;;;;;;;;;;5013506;28;20366;-63
2023/03/08 00:26:02;;;;;;;9.45;8.95;;;;;;;;;;5011755;28;20037;-63
2023/03/08 00:28:28;;;;;;;9.27;8.80;;;;;;;;;;5009874;28;20046;-63
2023/03/08 00:30:54;;;;;;;9.63;9.13;;;;;;;;;;5012177;28;20526;-63
2023/03/08 00:33:19;;;;;;;8.75;8.35;;;;;;;;;;5014836;28;20013;-63
2023/03/08 00:35:52;;;;;;;9.60;9.10;;;;;;;;;;5012530;28;20030;-64
2023/03/08 00:38:18;;;;;;;8.98;8.57;;;;;;;;;;5008922;28;20057;-64
2023/03/08 00:40:43;;;;;;;10.02;9.50;;;;;;;;;;5014151;28;20385;-63
2023/03/08 00:43:08;;;;;;;9.43;8.93;;;;;;;;;;5012629;28;20025;-63
2023/03/08 00:45:33;;;;;;;9.02;8.63;;;;;;;;;;5011294;28;20022;-62
2023/03/08 00:47:59;;;;;;;9.60;9.10;;;;;;;;;;5010794;28;20025;-62
2023/03/08 00:50:24;;;;;;;8.80;8.40;;;;;;;;;;5011125;28;20108;-63
2023/03/08 00:52:49;;;;;;;10.00;9.45;;;;;;;;;;5013478;28;20030;-63
2023/03/08 00:55:15;;;;;;;10.27;9.68;;;;;;;;;;5010693;28;20033;-63
2023/03/08 00:57:40;;;;;;;9.27;8.77;;;;;;;;;;5011017;28;20024;-62
2023/03/08 01:00:07;;;;;;;9.23;8.73;;;;;;;;;;5011155;28;20029;-62
2023/03/08 01:02:32;;;;;;;8.95;8.50;;;;;;;;;;5017346;28;20496;-64
2023/03/08 01:04:57;;;;;;;9.30;8.80;;;;;;;;;;5009617;28;20026;-62
2023/03/08 01:07:25;;;;;;;9.00;8.60;;;;;;;;;;5012876;28;20365;-62
2023/03/08 01:09:53;;;;;;;9.10;8.65;;;;;;;;;;5014723;28;20030;-63
2023/03/08 01:12:21;;;;;;;9.30;8.80;;;;;;;;;;5014038;28;20508;-63
2023/03/08 01:14:46;;;;;;;9.32;8.82;;;;;;;;;;5015193;28;20026;-63
2023/03/08 01:17:12;;;;;;;9.77;9.27;;;;;;;;;;5014783;28;20025;-63
2023/03/08 01:19:37;;;;;;;9.07;8.63;;;;;;;;;;5013993;28;20026;-64
2023/03/08 01:22:02;;;;;;;9.20;8.70;;;;;;;;;;5012152;28;20108;-64
2023/03/08 01:24:27;;;;;;;9.25;8.75;;;;;;;;;;5013694;28;20168;-64
2023/03/08 01:26:54;;;;;;;9.55;9.05;;;;;;;;;;5014175;28;20014;-62
2023/03/08 01:29:20;;;;;;;8.90;8.50;;;;;;;;;;5013478;28;20053;-62
2023/03/08 01:31:45;;;;;;;8.88;8.48;;;;;;;;;;5012353;28;20060;-63
2023/03/08 01:34:10;;;;;;;9.30;8.80;;;;;;;;;;5004006;28;20028;-63
2023/03/08 01:36:36;;;;;;;9.40;8.93;;;;;;;;;;5013150;28;20013;-62
2023/03/08 01:39:02;;;;;;;8.73;8.32;;;;;;;;;;5012556;28;20112;-63
2023/03/08 01:41:29;;;;;;;8.98;8.57;;;;;;;;;;5013584;28;20072;-62
2023/03/08 01:43:54;;;;;;;9.93;9.43;;;;;;;;;;5000296;28;20105;-63
2023/03/08 01:46:22;;;;;;;9.00;8.60;;;;;;;;;;5010231;28;20565;-63
2023/03/08 01:48:47;;;;;;;9.43;8.93;;;;;;;;;;5013124;28;20022;-63
2023/03/08 01:51:16;;;;;;;9.32;8.82;;;;;;;;;;5012790;28;20543;-62
2023/03/08 01:53:42;;;;;;;8.90;8.50;;;;;;;;;;5013273;28;20521;-64
2023/03/08 01:56:09;;;;;;;9.50;9.00;;;;;;;;;;5011663;28;20026;-64
2023/03/08 01:58:34;;;;;;;8.90;8.50;;;;;;;;;;5013304;28;20022;-63
2023/03/08 02:00:59;;;;;;;8.77;8.38;;;;;;;;;;5012195;28;20424;-63
2023/03/08 02:03:25;;;;;;;9.02;8.60;;;;;;;;;;5013368;28;20026;-64
2023/03/08 02:05:50;;;;;;;9.15;8.70;;;;;;;;;;5012575;28;20022;-64
2023/03/08 02:08:16;;;;;;;9.50;9.00;;;;;;;;;;5013201;28;20385;-64
2023/03/08 02:10:42;;;;;;;8.80;8.40;;;;;;;;;;5012484;28;20474;-64
2023/03/08 02:13:08;;;;;;;9.02;8.63;;;;;;;;;;5012137;28;20092;-64
2023/03/08 02:15:33;;;;;;;9.52;9.02;;;;;;;;;;5014145;28;20026;-64
2023/03/08 02:17:58;;;;;;;9.30;8.80;;;;;;;;;;5013178;28;20087;-64
2023/03/08 02:20:28;;;;;;;9.68;9.18;;;;;;;;;;5012975;28;20113;-63
2023/03/08 02:22:53;;;;;;;9.65;9.15;;;;;;;;;;5012904;28;20022;-63
2023/03/08 02:25:20;;;;;;;9.50;9.00;;;;;;;;;;5012303;28;20045;-63
2023/03/08 02:27:45;;;;;;;9.20;8.75;;;;;;;;;;5012083;28;20644;-63
2023/03/08 02:30:12;;;;;;;10.13;9.63;;;;;;;;;;5007544;28;20038;-62
2023/03/08 02:32:38;;;;;;;8.55;8.15;;;;;;;;;;5012612;28;20014;-62
2023/03/08 02:35:03;;;;;;;8.90;8.50;;;;;;;;;;5006068;28;20493;-63
2023/03/08 02:37:30;;;;;;;8.63;8.23;;;;;;;;;;5008665;28;20017;-63
2023/03/08 02:39:55;;;;;;;8.63;8.23;;;;;;;;;;5012951;28;20362;-63
2023/03/08 02:42:20;;;;;;;9.45;8.95;;;;;;;;;;5009759;28;20033;-63
2023/03/08 02:44:46;;;;;;;9.77;9.27;;;;;;;;;;5012364;28;20025;-64
2023/03/08 02:47:11;;;;;;;9.18;8.77;;;;;;;;;;5012240;28;20096;-63
2023/03/08 02:49:36;;;;;;;8.85;8.45;;;;;;;;;;5012193;28;20026;-64
2023/03/08 02:52:02;;;;;;;9.60;9.10;;;;;;;;;;5010834;28;20013;-64
2023/03/08 02:54:27;;;;;;;9.13;8.70;;;;;;;;;;5011417;28;20053;-64
2023/03/08 02:56:52;;;;;;;9.85;9.35;;;;;;;;;;5010854;28;20017;-64
2023/03/08 02:59:17;;;;;;;8.98;8.57;;;;;;;;;;5012691;28;20492;-64
2023/03/08 03:01:43;;;;;;;8.65;8.25;;;;;;;;;;5012129;28;20092;-64
2023/03/08 03:04:08;;;;;;;9.20;8.77;;;;;;;;;;5011811;28;20400;-64
2023/03/08 03:06:33;;;;;;;8.90;8.50;;;;;;;;;;5012100;28;20068;-64
2023/03/08 03:08:58;;;;;;;8.75;8.35;;;;;;;;;;5010757;28;20530;-64
2023/03/08 03:11:24;;;;;;;9.10;8.70;;;;;;;;;;5001176;28;20041;-63
2023/03/08 03:13:53;;;;;;;9.10;8.70;;;;;;;;;;5010488;28;20436;-63
2023/03/08 03:16:18;;;;;;;9.40;8.90;;;;;;;;;;5012145;28;20014;-63
2023/03/08 03:18:44;;;;;;;9.80;9.30;;;;;;;;;;5010949;28;20100;-63
2023/03/08 03:21:11;;;;;;;9.63;9.13;;;;;;;;;;5012178;28;20021;-63
2023/03/08 03:23:36;;;;;;;8.95;8.55;;;;;;;;;;5011883;28;20018;-64
2023/03/08 03:26:05;;;;;;;9.00;8.60;;;;;;;;;;5006609;28;20030;-64
2023/03/08 03:28:31;;;;;;;9.20;8.80;;;;;;;;;;5011640;28;20092;-64
2023/03/08 03:30:56;;;;;;;9.52;9.07;;;;;;;;;;5011570;28;20105;-63
2023/03/08 03:33:21;;;;;;;9.02;8.63;;;;;;;;;;5011506;28;20018;-63
2023/03/08 03:35:46;;;;;;;8.90;8.50;;;;;;;;;;5011777;28;20385;-63
2023/03/08 03:38:12;;;;;;;9.00;8.60;;;;;;;;;;5013565;28;20045;-64
2023/03/08 03:40:37;;;;;;;9.10;8.70;;;;;;;;;;5008020;28;20029;-64
2023/03/08 03:43:02;;;;;;;9.73;9.23;;;;;;;;;;5001106;28;20434;-65
2023/03/08 03:45:28;;;;;;;9.88;9.38;;;;;;;;;;5006853;28;20029;-63
2023/03/08 03:47:53;;;;;;;9.68;9.18;;;;;;;;;;5011438;28;20030;-65
2023/03/08 03:50:18;;;;;;;9.45;9.00;;;;;;;;;;5010797;28;20057;-64
2023/03/08 03:52:43;;;;;;;9.25;8.85;;;;;;;;;;5011848;28;20076;-65
2023/03/08 03:55:09;;;;;;;9.18;8.77;;;;;;;;;;5010393;28;20018;-64
2023/03/08 03:57:34;;;;;;;9.00;8.60;;;;;;;;;;5010939;28;20053;-64
2023/03/08 03:59:59;;;;;;;9.23;8.82;;;;;;;;;;5011721;28;20384;-63
2023/03/08 04:02:25;;;;;;;9.05;8.65;;;;;;;;;;4994181;28;20026;-62
2023/03/08 04:04:50;;;;;;;9.18;8.77;;;;;;;;;;5011903;28;20042;-64
2023/03/08 04:07:15;;;;;;;9.80;9.30;;;;;;;;;;4996422;28;20529;-63
2023/03/08 04:09:41;;;;;;;9.27;8.88;;;;;;;;;;4993672;28;20029;-64
2023/03/08 04:12:06;;;;;;;9.75;9.25;;;;;;;;;;5010410;28;20033;-64
2023/03/08 04:14:31;;;;;;;9.52;9.05;;;;;;;;;;5011902;28;20018;-65
2023/03/08 04:16:57;;;;;;;10.10;9.60;;;;;;;;;;5010882;28;20025;-65
2023/03/08 04:19:22;;;;;;;9.23;8.82;;;;;;;;;;5011309;28;20042;-64
2023/03/08 04:21:47;;;;;;;9.20;8.80;;;;;;;;;;5004260;28;20026;-65
2023/03/08 04:24:13;;;;;;;8.90;8.50;;;;;;;;;;5010262;28;20018;-64
2023/03/08 04:26:38;;;;;;;8.90;8.50;;;;;;;;;;5011439;28;20382;-64
2023/03/08 04:29:05;;;;;;;9.55;9.05;;;;;;;;;;5010808;28;20052;-64
2023/03/08 04:31:30;;;;;;;9.82;9.32;;;;;;;;;;5010567;28;20026;-64
2023/03/08 04:33:57;;;;;;;10.20;9.70;;;;;;;;;;5010787;28;20033;-64
2023/03/08 04:36:22;;;;;;;9.90;9.40;;;;;;;;;;5010472;28;20029;-64
2023/03/08 04:38:49;;;;;;;9.30;8.90;;;;;;;;;;5015685;28;20014;-64
2023/03/08 04:41:15;;;;;;;10.07;9.57;;;;;;;;;;5011824;28;20432;-64
2023/03/08 04:43:43;;;;;;;9.65;9.15;;;;;;;;;;5011245;28;20064;-63
2023/03/08 04:46:08;;;;;;;9.13;8.73;;;;;;;;;;5009674;28;20049;-64
2023/03/08 04:48:34;;;;;;;9.95;9.45;;;;;;;;;;5012785;28;20510;-64
2023/03/08 04:51:00;;;;;;;9.98;9.48;;;;;;;;;;5005806;28;20030;-64
2023/03/08 04:53:26;;;;;;;9.50;9.00;;;;;;;;;;4995856;28;20053;-63
2023/03/08 04:55:52;;;;;;;9.05;8.65;;;;;;;;;;5011371;28;20026;-65
2023/03/08 04:58:17;;;;;;;10.27;9.77;;;;;;;;;;5012322;28;20030;-65
2023/03/08 05:00:43;;;;;;;10.13;9.63;;;;;;;;;;5012250;28;20060;-64
2023/03/08 05:03:08;;;;;;;10.85;10.25;;;;;;;;;;5010327;28;20024;-64
2023/03/08 05:05:33;;;;;;;10.25;9.73;;;;;;;;;;5006141;28;20425;-65
2023/03/08 05:08:02;;;;;;;9.85;9.35;;;;;;;;;;5009963;28;20033;-63
2023/03/08 05:10:27;;;;;;;9.20;8.80;;;;;;;;;;5008199;28;20025;-64
2023/03/08 05:12:52;;;;;;;10.18;9.68;;;;;;;;;;5014157;28;20093;-63
2023/03/08 05:15:18;;;;;;;11.07;10.48;;;;;;;;;;5008003;28;20432;-63
2023/03/08 05:17:43;;;;;;;11.13;10.52;;;;;;;;;;5006976;28;20022;-63
2023/03/08 05:20:09;;;;;;;10.23;9.73;;;;;;;;;;5000777;28;20030;-63
2023/03/08 05:22:34;;;;;;;10.82;10.23;;;;;;;;;;5013629;28;20030;-63
2023/03/08 05:24:59;;;;;;;10.13;9.63;;;;;;;;;;5013338;28;20027;-62
2023/03/08 05:27:24;;;;;;;10.57;10.02;;;;;;;;;;5013296;28;20029;-62
2023/03/08 05:29:50;;;;;;;9.80;9.30;;;;;;;;;;5013230;28;20058;-62
2023/03/08 05:32:15;;;;;;;10.25;9.75;;;;;;;;;;5005947;28;20388;-62
2023/03/08 05:34:42;;;;;;;9.93;9.43;;;;;;;;;;5007358;28;20050;-64
2023/03/08 05:37:07;;;;;;;10.63;10.02;;;;;;;;;;5019460;28;20026;-63
2023/03/08 05:39:32;;;;;;;9.90;9.40;;;;;;;;;;5013407;28;20385;-63
2023/03/08 05:41:58;;;;;;;10.43;9.93;;;;;;;;;;5012871;28;20436;-63
2023/03/08 05:44:23;;;;;;;9.55;9.05;;;;;;;;;;5013017;28;20018;-63
2023/03/08 05:46:49;;;;;;;10.13;9.63;;;;;;;;;;5010691;28;20022;-64
2023/03/08 05:49:14;;;;;;;10.75;10.15;;;;;;;;;;5012070;28;20018;-64
2023/03/08 05:51:40;;;;;;;10.20;9.68;;;;;;;;;;5006649;28;20025;-64
2023/03/08 05:54:05;;;;;;;9.93;9.43;;;;;;;;;;5012946;28;20061;-64
2023/03/08 05:56:30;;;;;;;9.60;9.10;;;;;;;;;;5010197;28;20056;-63
2023/03/08 05:58:55;;;;;;;10.35;9.85;;;;;;;;;;5011901;28;20028;-63
2023/03/08 06:01:21;;;;;;;9.82;9.32;;;;;;;;;;4997624;28;20088;-63
2023/03/08 06:03:48;;;;;;;9.93;9.43;;;;;;;;;;5003689;28;20056;-63
2023/03/08 06:06:15;;;;;;;10.20;9.70;;;;;;;;;;5012839;28;20061;-64
2023/03/08 06:08:40;;;;;;;10.38;9.88;;;;;;;;;;5012301;28;20056;-64
2023/03/08 06:11:05;;;;;;;9.80;9.30;;;;;;;;;;5012358;28;20470;-63
2023/03/08 06:13:31;;;;;;;10.00;9.50;;;;;;;;;;4999225;28;20101;-62
2023/03/08 06:15:57;;;;;;;9.75;9.25;;;;;;;;;;5013073;28;20022;-64
2023/03/08 06:18:23;;;;;;;9.85;9.35;;;;;;;;;;5012735;28;20018;-64
2023/03/08 06:20:57;;;;;;;11.07;10.48;;;;;;;;;;5012313;28;20149;-64
2023/03/08 06:23:23;;;;;;;;;;;;;;;;;;5013340;28;20100;-63
2023/03/08 06:25:48;;;;;;;10.00;9.50;;;;;;;;;;5013100;28;19956;-64
2023/03/08 06:28:13;;;;;;;10.15;9.65;;;;;;;;;;5009361;28;20026;-63
2023/03/08 06:30:39;;;;;;;10.25;9.75;;;;;;;;;;5011324;28;20041;-64
2023/03/08 06:33:04;;;;;;;9.68;9.18;;;;;;;;;;5012496;28;20304;-64
2023/03/08 06:35:29;;;;;;;10.27;9.77;;;;;;;;;;5011941;28;20537;-64
2023/03/08 06:37:54;;;;;;;10.43;9.93;;;;;;;;;;5022272;28;20026;-64
2023/03/08 06:40:20;;;;;;;11.57;10.98;;;;;;;;;;5012914;28;20392;-64
2023/03/08 06:42:45;;;;;;;10.45;9.95;;;;;;;;;;5004759;28;20032;-64
2023/03/08 06:45:11;;;;;;;12.05;11.35;;;;;;;;;;5007384;28;20057;-65
2023/03/08 06:47:36;;;;;;;9.63;9.15;;;;;;;;;;5011049;28;20396;-62
2023/03/08 06:50:01;;;;;;;9.38;8.98;;;;;;;;;;5011726;28;20423;-62
2023/03/08 06:52:27;;;;;;;9.30;8.90;;;;;;;;;;5012602;28;20030;-61
2023/03/08 06:54:52;;;;;;;10.00;9.50;;;;;;;;;;5012151;28;20024;-62
2023/03/08 06:57:17;;;;;;;9.82;9.32;;;;;;;;;;4998923;28;20403;-62
2023/03/08 06:59:42;;;;;;;10.23;9.73;;;;;;;;;;5006399;28;20156;-62
2023/03/08 07:02:08;;;;;;;10.18;9.68;;;;;;;;;;5009332;28;20500;-61
2023/03/08 07:04:33;;;;;;;10.10;9.60;;;;;;;;;;5008904;28;20049;-61
2023/03/08 07:06:59;;;;;;;10.20;9.70;;;;;;;;;;5013782;28;20079;-61
2023/03/08 07:09:24;;;;;;;10.10;9.60;;;;;;;;;;5004289;28;20014;-62
2023/03/08 07:11:49;;;;;;;10.48;9.98;;;;;;;;;;5013436;28;20052;-61
2023/03/08 07:14:15;;;;;;;10.02;9.52;;;;;;;;;;5010464;28;20026;-63
2023/03/08 07:16:40;;;;;;;10.23;9.73;;;;;;;;;;5010392;28;20053;-62
2023/03/08 07:19:06;;;;;;;10.07;9.57;;;;;;;;;;5011898;28;20041;-62
2023/03/08 07:21:31;;;;;;;10.55;10.05;;;;;;;;;;5010748;28;20049;-64
2023/03/08 07:23:56;;;;;;;10.98;10.38;;;;;;;;;;5006991;28;20021;-64
2023/03/08 07:26:22;;;;;;;10.70;10.20;;;;;;;;;;5008803;28;20032;-66
2023/03/08 07:28:48;;;;;;;11.00;10.40;;;;;;;;;;5008602;28;20119;-63
2023/03/08 07:31:14;;;;;;;11.02;10.43;;;;;;;;;;5009148;28;20496;-62
2023/03/08 07:33:39;;;;;;;10.65;10.13;;;;;;;;;;5020748;28;20017;-66
2023/03/08 07:36:04;;;;;;;11.13;10.52;;;;;;;;;;5010546;28;20022;-63
2023/03/08 07:38:30;;;;;;;11.63;11.02;;;;;;;;;;5007834;28;20066;-62
2023/03/08 07:40:55;;;;;;;11.38;10.77;;;;;;;;;;5009651;28;20037;-65
2023/03/08 07:43:21;;;;;;;11.52;10.93;;;;;;;;;;5018679;28;20030;-66
2023/03/08 07:45:46;;;;;;;10.43;9.93;;;;;;;;;;5014418;28;20107;-64
2023/03/08 07:48:12;;;;;;;10.27;9.77;;;;;;;;;;5005648;28;20022;-66
2023/03/08 07:50:37;;;;;;;10.70;10.15;;;;;;;;;;4999137;28;20419;-65
2023/03/08 07:53:03;;;;;;;10.98;10.40;;;;;;;;;;4998290;28;20034;-66
2023/03/08 07:55:28;;;;;;;11.38;10.77;;;;;;;;;;5007660;28;20450;-67
2023/03/08 07:57:54;;;;;;;10.82;10.27;;;;;;;;;;5005232;28;20022;-63
2023/03/08 08:00:19;;;;;;;11.45;10.85;;;;;;;;;;5011402;28;20028;-64
2023/03/08 08:02:45;;;;;;;10.50;10.00;;;;;;;;;;5013376;28;20053;-65
2023/03/08 08:05:11;;;;;;;11.60;11.00;;;;;;;;;;5009603;28;20057;-65
2023/03/08 08:07:36;;;;;;;10.00;9.50;;;;;;;;;;5008431;28;20068;-66
2023/03/08 08:10:02;;;;;;;11.43;10.82;;;;;;;;;;5005756;28;20081;-65
2023/03/08 08:12:27;;;;;;;11.40;10.80;;;;;;;;;;5012126;28;20099;-65
2023/03/08 08:14:52;;;;;;;11.45;10.85;;;;;;;;;;5006627;28;20508;-67
2023/03/08 08:17:18;;;;;;;10.57;10.07;;;;;;;;;;5006761;28;20022;-65
2023/03/08 08:19:44;;;;;;;10.60;10.10;;;;;;;;;;5005465;28;20026;-65
2023/03/08 08:22:09;;;;;;;10.23;9.73;;;;;;;;;;5003770;28;20121;-64
2023/03/08 08:24:34;;;;;;;11.43;10.82;;;;;;;;;;5005807;28;20038;-64
2023/03/08 08:27:00;;;;;;;11.65;11.05;;;;;;;;;;5002097;28;20024;-65
2023/03/08 08:29:25;;;;;;;11.07;10.48;;;;;;;;;;5007943;28;20054;-66
2023/03/08 08:31:51;;;;;;;10.63;10.13;;;;;;;;;;5006171;28;20485;-66
2023/03/08 08:34:18;;;;;;;11.27;10.68;;;;;;;;;;5012303;28;20050;-65
2023/03/08 08:36:43;;;;;;;10.82;10.32;;;;;;;;;;5007941;28;20026;-66
2023/03/08 08:39:08;;;;;;;11.27;10.68;;;;;;;;;;5003303;28;20034;-66
2023/03/08 08:41:35;;;;;;;10.15;9.65;;;;;;;;;;5008809;28;20057;-67
2023/03/08 08:44:01;;;;;;;11.55;10.95;;;;;;;;;;4999285;28;20400;-65
2023/03/08 08:46:26;;;;;;;10.55;10.05;;;;;;;;;;5002713;28;20026;-65
2023/03/08 08:48:52;;;;;;;10.55;10.05;;;;;;;;;;5010512;28;20045;-65
2023/03/08 08:51:18;;;;;;;11.57;10.98;;;;;;;;;;5006573;28;20853;-65
2023/03/08 08:53:43;;;;;;;12.02;11.43;;;;;;;;;;5005342;28;20398;-64
2023/03/08 08:56:29;;;;;;;10.65;10.15;;;;;;;;;;5009286;28;20380;-62
2023/03/08 08:58:55;;;;;;;10.85;10.32;;;;;;;;;;5001636;28;20037;-64
2023/03/08 09:01:22;;;;;;;10.82;10.32;;;;;;;;;;4993481;28;20030;-63
2023/03/08 09:03:48;;;;;;;10.23;9.73;;;;;;;;;;5004946;28;20037;-64
2023/03/08 09:06:15;;;;;;;11.43;10.82;;;;;;;;;;5013574;28;20080;-63
2023/03/08 09:08:40;;;;;;;11.15;10.55;;;;;;;;;;5018896;28;20026;-62
2023/03/08 09:11:06;;;;;;;10.85;10.35;;;;;;;;;;4995390;28;20026;-63
2023/03/08 09:13:32;;;;;;;10.43;9.93;;;;;;;;;;5015447;28;20406;-63
2023/03/08 09:15:58;;;;;;;10.73;10.23;;;;;;;;;;5000465;28;20049;-64
2023/03/08 09:18:23;;;;;;;10.85;10.35;;;;;;;;;;5017862;28;20076;-63
2023/03/08 09:20:49;;;;;;;11.40;10.80;;;;;;;;;;5006385;28;20091;-63
2023/03/08 09:23:14;;;;;;;11.60;11.00;;;;;;;;;;5008745;28;20140;-64
2023/03/08 09:25:39;;;;;;;11.20;10.60;;;;;;;;;;5010470;28;20069;-66
2023/03/08 09:28:05;;;;;;;11.35;10.75;;;;;;;;;;5010460;28;20467;-66
2023/03/08 09:30:31;;;;;;;12.10;11.50;;;;;;;;;;4982567;28;20623;-65
2023/03/08 09:32:57;;;;;;;11.30;10.70;;;;;;;;;;5009462;28;20029;-64
2023/03/08 09:35:22;;;;;;;11.45;10.85;;;;;;;;;;5017709;28;20034;-65
2023/03/08 09:37:47;;;;;;;11.73;11.13;;;;;;;;;;5020715;28;20037;-64
2023/03/08 09:40:20;;;;;;;11.68;11.07;;;;;;;;;;5015852;28;20036;-64
2023/03/08 09:42:45;;;;;;;10.77;10.27;;;;;;;;;;5000388;28;20042;-67
2023/03/08 09:45:27;;;;;;;12.15;11.55;;;;;;;;;;5006059;28;20039;-66
2023/03/08 09:48:11;;;;;;;10.60;10.10;;;;;;;;;;5004394;28;20030;-66
2023/03/08 09:50:38;;;;;;;10.60;10.10;;;;;;;;;;5009873;28;20033;-64
2023/03/08 09:53:13;;;;;;;10.85;10.35;;;;;;;;;;5010049;28;20022;-65
2023/03/08 09:55:44;;;;;;;10.65;10.15;;;;;;;;;;5006226;28;20017;-67
2023/03/08 09:58:15;;;;;;;10.82;10.32;;;;;;;;;;4999343;28;20103;-67
2023/03/08 10:00:40;;;;;;;11.02;10.52;;;;;;;;;;5021686;28;20370;-65
2023/03/08 10:03:24;;;;;;;10.90;10.40;;;;;;;;;;5009705;28;20026;-64
2023/03/08 10:05:49;;;;;;;11.60;11.00;;;;;;;;;;5006186;28;20083;-66
2023/03/08 10:08:30;;;;;;;10.90;10.40;;;;;;;;;;5009232;28;20731;-65
2023/03/08 10:11:00;;;;;;;11.10;10.60;;;;;;;;;;5015638;28;20108;-64
2023/03/08 10:13:31;;;;;;;11.68;11.07;;;;;;;;;;5009948;28;20346;-63
2023/03/08 10:16:15;;;;;;;10.95;10.45;;;;;;;;;;5003963;28;20218;-64
2023/03/08 10:18:46;;;;;;;11.10;10.60;;;;;;;;;;5005738;28;20093;-63
2023/03/08 10:21:16;;;;;;;11.52;10.93;;;;;;;;;;5006881;28;20030;-66
2023/03/08 10:23:41;;;;;;;11.18;10.68;;;;;;;;;;4999974;28;20477;-66
2023/03/08 10:26:13;;;;;;;11.10;10.60;;;;;;;;;;5013400;28;20095;-64
2023/03/08 10:28:38;;;;;;;10.70;10.20;;;;;;;;;;5017704;28;20709;-64
2023/03/08 10:31:18;;;;;;;10.40;9.90;;;;;;;;;;5001903;28;20030;-64
2023/03/08 10:33:43;;;;;;;11.23;10.73;;;;;;;;;;5006502;28;20519;-64
2023/03/08 10:36:16;;;;;;;10.55;10.05;;;;;;;;;;5004335;28;20030;-67
2023/03/08 10:38:42;;;;;;;10.65;10.15;;;;;;;;;;5020605;28;20083;-67
2023/03/08 10:41:13;;;;;;;10.82;10.32;;;;;;;;;;4990812;28;20022;-67
2023/03/08 10:43:40;;;;;;;10.90;10.40;;;;;;;;;;5009833;28;20524;-67
2023/03/08 10:46:14;;;;;;;11.18;10.65;;;;;;;;;;5002583;28;20136;-65
2023/03/08 10:48:39;;;;;;;10.87;10.37;;;;;;;;;;5004256;28;20037;-67
2023/03/08 10:51:05;;;;;;;11.90;11.30;;;;;;;;;;4999900;28;20052;-63
2023/03/08 10:53:32;;;;;;;11.25;10.65;;;;;;;;;;5006640;28;20102;-65
2023/03/08 10:56:00;;;;;;;10.90;10.40;;;;;;;;;;5004225;28;20053;-64
2023/03/08 10:58:29;;;;;;;10.57;10.07;;;;;;;;;;5001559;28;20026;-66
2023/03/08 11:00:55;;;;;;;11.00;10.50;;;;;;;;;;5010520;28;20034;-64
2023/03/08 11:03:21;;;;;;;10.75;10.25;;;;;;;;;;4993660;28;20025;-68
2023/03/08 11:05:53;;;;;;;9.95;9.48;;;;;;;;;;5004450;28;20085;-67
2023/03/08 11:08:19;;;;;;;11.55;10.95;;;;;;;;;;5010995;28;20033;-63
2023/03/08 11:10:45;;;;;;;11.20;10.68;;;;;;;;;;5002094;28;20038;-65
2023/03/08 11:13:23;;;;;;;11.55;10.95;;;;;;;;;;4986167;28;20158;-66
2023/03/08 11:15:51;;;;;;;11.75;11.15;;;;;;;;;;5000512;28;20132;-65
2023/03/08 11:18:26;;;;;;;11.52;10.93;;;;;;;;;;5007041;28;20394;-65
2023/03/08 11:20:55;;;;;;;11.32;10.77;;;;;;;;;;4999279;28;20019;-69
2023/03/08 11:23:25;;;;;;;10.63;10.13;;;;;;;;;;5006355;28;20068;-65
2023/03/08 11:26:10;;;;;;;12.13;11.52;;;;;;;;;;5015423;28;20033;-66
2023/03/08 11:28:45;;;;;;;11.18;10.68;;;;;;;;;;4997030;28;20077;-64
2023/03/08 11:31:29;;;;;;;11.23;10.73;;;;;;;;;;4996661;28;20485;-65
2023/03/08 11:34:03;;;;;;;10.98;10.48;;;;;;;;;;5009304;28;20025;-65
2023/03/08 11:36:29;;;;;;;;;;;;;;;;;;5012521;28;20674;-64
2023/03/08 11:39:01;;;;;;;11.17;10.63;;;;;;;;;;5002600;28;19909;-64
2023/03/08 11:41:32;;;;;;;11.02;10.52;;;;;;;;;;5009775;28;20485;-64
2023/03/08 11:44:15;;;;;;;11.27;10.75;;;;;;;;;;5008208;28;20164;-66
2023/03/08 11:47:04;;;;;;;10.23;9.73;;;;;;;;;;5019083;28;20021;-66
2023/03/08 11:49:38;;;;;;;11.00;10.50;;;;;;;;;;5017972;28;20026;-65
2023/03/08 11:52:04;;;;;;;;;;;;;;;;;;5008861;28;20026;-66
2023/03/08 11:54:47;;;;;;;10.80;10.30;;;;;;;;;;5007801;28;20336;-65
2023/03/08 11:57:15;;;;;;;11.57;10.98;;;;;;;;;;5019517;28;20018;-65
2023/03/08 11:59:46;;;;;;;11.85;11.25;;;;;;;;;;5008800;28;20470;-64
2023/03/08 12:02:17;;;;;;;11.32;10.80;;;;;;;;;;5002305;28;20034;-64
2023/03/08 12:04:47;;;;;;;10.88;10.38;;;;;;;;;;5017631;28;20029;-65
2023/03/08 12:07:48;;;;;;;11.18;10.68;;;;;;;;;;5015031;28;20087;-63
2023/03/08 12:10:13;;;;;;;10.70;10.20;;;;;;;;;;4909863;29;20055;-64
2023/03/08 12:12:41;;;;;;;11.38;10.85;;;;;;;;;;4989090;28;20401;-64
2023/03/08 12:15:13;;;;;;;10.75;10.25;;;;;;;;;;5009072;28;20026;-66
2023/03/08 12:17:41;;;;;;;12.07;11.48;;;;;;;;;;5007075;28;20036;-63
2023/03/08 12:20:11;;;;;;;11.25;10.75;;;;;;;;;;5005365;28;20029;-67
2023/03/08 12:22:39;;;;;;;10.80;10.30;;;;;;;;;;5000114;28;20030;-66
2023/03/08 12:25:07;;;;;;;11.43;10.90;;;;;;;;;;5009413;28;20026;-65
2023/03/08 12:27:43;;;;;;;11.85;11.25;;;;;;;;;;5003536;28;20025;-63
2023/03/08 12:30:14;;;;;;;11.65;11.07;;;;;;;;;;5003067;28;20061;-64
2023/03/08 12:32:41;;;;;;;11.35;10.85;;;;;;;;;;5004736;28;20026;-68
2023/03/08 12:35:23;;;;;;;11.32;10.82;;;;;;;;;;5010937;28;20105;-66
2023/03/08 12:37:59;;;;;;;10.70;10.20;;;;;;;;;;5001978;28;20473;-64
2023/03/08 12:40:29;;;;;;;11.18;10.68;;;;;;;;;;5006739;28;20092;-65
2023/03/08 12:43:05;;;;;;;11.50;10.95;;;;;;;;;;5001046;28;20077;-64
2023/03/08 12:45:31;;;;;;;11.15;10.65;;;;;;;;;;5005531;28;20030;-64
2023/03/08 12:48:16;;;;;;;11.40;10.85;;;;;;;;;;5008433;28;20175;-64
2023/03/08 12:50:44;;;;;;;11.20;10.70;;;;;;;;;;4970364;28;20505;-65
2023/03/08 12:53:20;;;;;;;11.23;10.73;;;;;;;;;;5008859;28;20050;-65
2023/03/08 12:55:57;;;;;;;12.07;11.48;;;;;;;;;;5004322;28;20124;-66
2023/03/08 12:58:22;;;;;;;10.75;10.25;;;;;;;;;;5008394;28;20017;-64
2023/03/08 13:00:56;;;;;;;11.65;11.05;;;;;;;;;;5006189;28;20034;-65
2023/03/08 13:03:21;;;;;;;10.48;9.98;;;;;;;;;;5014832;28;20029;-65
2023/03/08 13:05:49;;;;;;;11.23;10.73;;;;;;;;;;5007520;28;20420;-65
2023/03/08 13:08:17;;;;;;;11.35;10.82;;;;;;;;;;5004346;28;20030;-65
2023/03/08 13:10:48;;;;;;;12.23;11.63;;;;;;;;;;5007647;28;20052;-63
2023/03/08 13:13:19;;;;;;;10.98;10.48;;;;;;;;;;5013983;28;20022;-64
2023/03/08 13:15:44;;;;;;;12.02;11.43;;;;;;;;;;5014992;28;20046;-66
2023/03/08 13:18:13;;;;;;;11.18;10.68;;;;;;;;;;5006920;28;20366;-64
2023/03/08 13:20:38;;;;;;;10.63;10.13;;;;;;;;;;5001957;28;21077;-67
2023/03/08 13:23:06;;;;;;;12.25;11.65;;;;;;;;;;5008085;28;20101;-64
2023/03/08 13:25:50;;;;;;;11.35;10.82;;;;;;;;;;5004738;28;20026;-63
2023/03/08 13:28:17;;;;;;;11.30;10.77;;;;;;;;;;5010075;28;20049;-65
2023/03/08 13:30:50;;;;;;;10.50;10.00;;;;;;;;;;5015381;28;20110;-65
2023/03/08 13:33:23;;;;;;;11.07;10.57;;;;;;;;;;5007201;28;20037;-64
2023/03/08 13:36:00;;;;;;;11.95;11.35;;;;;;;;;;5006620;28;20152;-64
2023/03/08 13:38:27;;;;;;;11.43;10.85;;;;;;;;;;5000533;28;20034;-65
2023/03/08 13:40:53;;;;;;;11.32;10.82;;;;;;;;;;5001646;28;20022;-64
2023/03/08 13:43:23;;;;;;;10.60;10.10;;;;;;;;;;5006475;28;20030;-65
2023/03/08 13:45:52;;;;;;;10.88;10.38;;;;;;;;;;5007023;28;20477;-67
2023/03/08 13:48:18;;;;;;;11.45;10.85;;;;;;;;;;5010727;28;20529;-65
2023/03/08 13:50:44;;;;;;;11.32;10.77;;;;;;;;;;5003826;28;20397;-66
2023/03/08 13:53:14;;;;;;;11.23;10.70;;;;;;;;;;5002954;28;20517;-64
2023/03/08 13:55:42;;;;;;;10.90;10.40;;;;;;;;;;5001356;28;20061;-64
2023/03/08 13:58:18;;;;;;;12.75;12.07;;;;;;;;;;5004033;28;20493;-65
2023/03/08 14:00:43;;;;;;;11.45;10.85;;;;;;;;;;5006047;28;20029;-65
2023/03/08 14:03:17;;;;;;;11.82;11.23;;;;;;;;;;5005648;28;20036;-63
2023/03/08 14:05:44;;;;;;;10.52;10.02;;;;;;;;;;5004865;28;20183;-63
2023/03/08 14:08:20;;;;;;;12.02;11.43;;;;;;;;;;5010571;28;20033;-64
2023/03/08 14:10:50;;;;;;;11.82;11.23;;;;;;;;;;5010015;28;20026;-66
2023/03/08 14:13:33;;;;;;;11.30;10.80;;;;;;;;;;5007953;28;20034;-66
2023/03/08 14:16:01;;;;;;;11.82;11.23;;;;;;;;;;5015880;28;20014;-63
2023/03/08 14:18:37;;;;;;;10.45;9.95;;;;;;;;;;5011101;28;20053;-66
2023/03/08 14:21:02;;;;;;;13.05;12.35;;;;;;;;;;4995278;28;20034;-67
2023/03/08 14:23:28;;;;;;;11.27;10.73;;;;;;;;;;5004282;28;20029;-66
2023/03/08 14:25:56;;;;;;;11.77;11.18;;;;;;;;;;5001148;28;20045;-65
2023/03/08 14:28:35;;;;;;;11.13;10.63;;;;;;;;;;5004808;28;20057;-66
2023/03/08 14:31:01;;;;;;;11.00;10.50;;;;;;;;;;5012707;28;20472;-65